Time;durP1;ratioP1;P1;durP2;ratioP2;P2;SDS_P1;SDS_P2;PMS_P1;PMS_P2;Temp;Humidity;BMP_temperature;BMP_pressure;BME280_temperature;BME280_humidity;BME280_pressure;Samples;Min_cycle;Max_cycle;Signal;HPM_P1;HPM_P2
2022/03/20 00:00:16;;;;;;;1.40;1.40;;;;;;;3.14;40.09;103312.59;103528;1274;137727;-64
2022/03/20 00:03:12;;;;;;;1.40;1.40;;;;;;;3.14;39.39;103310.70;103889;1274;110778;-63
2022/03/20 00:05:42;;;;;;;1.50;1.50;;;;;;;3.16;39.45;103307.96;103855;1274;94816;-68
2022/03/20 00:08:11;;;;;;;1.50;1.50;;;;;;;3.19;39.61;103310.36;104257;1274;137184;-63
2022/03/20 00:10:42;;;;;;;1.50;1.50;;;;;;;3.18;39.51;103311.73;103930;1274;106371;-64
2022/03/20 00:13:12;;;;;;;1.40;1.40;;;;;;;3.19;39.21;103311.95;104544;1274;137581;-64
2022/03/20 00:15:42;;;;;;;1.30;1.30;;;;;;;3.19;39.29;103306.34;103950;1274;108824;-66
2022/03/20 00:18:11;;;;;;;1.40;1.40;;;;;;;3.14;38.67;103305.20;103759;1274;137739;-64
2022/03/20 00:20:41;;;;;;;1.40;1.40;;;;;;;3.10;38.93;103305.34;103857;1274;95192;-64
2022/03/20 00:23:11;;;;;;;1.40;1.40;;;;;;;3.12;38.53;103305.11;103828;1274;108514;-65
2022/03/20 00:25:42;;;;;;;1.40;1.40;;;;;;;3.04;39.03;103305.90;103962;1274;137637;-64
2022/03/20 00:28:12;;;;;;;1.30;1.30;;;;;;;3.00;38.60;103301.14;104069;1274;108795;-65
2022/03/20 00:30:40;;;;;;;1.60;1.60;;;;;;;3.05;39.08;103303.00;103622;1277;138064;-63
2022/03/20 00:33:09;;;;;;;1.40;1.40;;;;;;;3.04;38.83;103299.61;103809;1274;95477;-65
2022/03/20 00:35:37;;;;;;;1.50;1.50;;;;;;;2.96;38.35;103301.83;103831;1274;108412;-64
2022/03/20 00:38:07;;;;;;;1.40;1.40;;;;;;;2.89;37.79;103309.20;103804;1274;137387;-64
2022/03/20 00:40:35;;;;;;;1.40;1.40;;;;;;;2.88;37.75;103309.32;103823;1274;109005;-65
2022/03/20 00:43:04;;;;;;;1.40;1.40;;;;;;;2.86;37.03;103310.44;103775;1274;137992;-65
2022/03/20 00:45:33;;;;;;;1.30;1.30;;;;;;;2.83;36.83;103306.77;103797;1275;95996;-66
2022/03/20 00:48:02;;;;;;;1.40;1.40;;;;;;;2.82;37.44;103305.87;103820;1274;138136;-65
2022/03/20 00:50:30;;;;;;;1.40;1.40;;;;;;;2.84;37.05;103307.73;103919;1274;98450;-66
2022/03/20 00:52:59;;;;;;;1.40;1.40;;;;;;;2.95;37.09;103307.41;103888;1274;107836;-65
2022/03/20 00:55:29;;;;;;;1.40;1.40;;;;;;;2.96;37.03;103309.05;103891;1274;138251;-65
2022/03/20 00:57:57;;;;;;;1.40;1.40;;;;;;;2.97;36.75;103309.77;104109;1274;94375;-65
2022/03/20 01:00:25;;;;;;;1.40;1.40;;;;;;;2.98;36.84;103312.98;103926;1274;137512;-65
2022/03/20 01:02:53;;;;;;;1.40;1.40;;;;;;;2.94;36.91;103307.36;104125;1274;99756;-66
2022/03/20 01:05:21;;;;;;;1.40;1.40;;;;;;;2.96;37.00;103309.04;104258;1274;109223;-64
2022/03/20 01:07:49;;;;;;;1.60;1.60;;;;;;;3.07;37.11;103306.42;104012;1274;138548;-63
2022/03/20 01:10:17;;;;;;;1.40;1.40;;;;;;;3.13;37.44;103305.52;104059;1274;94383;-64
2022/03/20 01:12:44;;;;;;;1.20;1.20;;;;;;;3.17;37.25;103306.25;104036;1274;137990;-65
2022/03/20 01:15:13;;;;;;;1.30;1.30;;;;;;;3.13;37.73;103308.48;103887;1276;99430;-64
2022/03/20 01:17:41;;;;;;;1.30;1.30;;;;;;;3.06;36.93;103308.65;103967;1274;109709;-67
2022/03/20 01:20:09;;;;;;;1.40;1.40;;;;;;;3.05;36.64;103314.39;103810;1274;137671;-65
2022/03/20 01:22:39;;;;;;;1.50;1.50;;;;;;;3.04;36.85;103318.74;104285;1274;95553;-64
2022/03/20 01:25:08;;;;;;;1.30;1.30;;;;;;;3.02;36.83;103314.60;103651;1274;429906;-65
2022/03/20 01:27:37;;;;;;;1.40;1.40;;;;;;;2.98;36.83;103314.58;103946;1274;98647;-65
2022/03/20 01:30:05;;;;;;;1.40;1.40;;;;;;;2.99;37.24;103314.30;103714;1276;138232;-65
2022/03/20 01:32:33;;;;;;;1.30;1.30;;;;;;;3.04;37.45;103312.76;103906;1274;94313;-65
2022/03/20 01:35:01;;;;;;;1.40;1.40;;;;;;;3.05;37.55;103311.44;103978;1274;94590;-63
2022/03/20 01:37:29;;;;;;;1.30;1.30;;;;;;;3.04;37.44;103312.77;104218;1274;137441;-64
2022/03/20 01:39:57;;;;;;;1.40;1.40;;;;;;;2.89;36.74;103312.70;103988;1274;99841;-64
2022/03/20 01:42:25;;;;;;;1.30;1.30;;;;;;;2.82;37.23;103311.48;103689;1274;137633;-64
2022/03/20 01:44:53;;;;;;;1.40;1.40;;;;;;;2.86;36.96;103307.98;103902;1274;94869;-65
2022/03/20 01:47:21;;;;;;;1.50;1.50;;;;;;;2.88;37.22;103307.18;103855;1274;94864;-64
2022/03/20 01:49:48;;;;;;;1.50;1.50;;;;;;;2.91;37.07;103302.28;103743;1274;137521;-65
2022/03/20 01:52:24;;;;;;;1.60;1.60;;;;;;;2.90;37.57;103308.52;103836;1274;98873;-65
2022/03/20 01:54:53;;;;;;;1.50;1.50;;;;;;;2.96;37.84;103307.96;103800;1274;137792;-65
2022/03/20 01:57:21;;;;;;;1.50;1.50;;;;;;;3.00;37.93;103306.08;103798;1274;94320;-64
2022/03/20 01:59:50;;;;;;;1.40;1.40;;;;;;;2.99;38.20;103306.37;103719;1274;137564;-66
2022/03/20 02:02:19;;;;;;;1.30;1.30;;;;;;;2.95;38.48;103307.21;103850;1274;108297;-64
2022/03/20 02:04:47;;;;;;;1.30;1.30;;;;;;;2.91;38.52;103309.11;104006;1274;100039;-63
2022/03/20 02:07:16;;;;;;;1.30;1.30;;;;;;;2.91;38.32;103309.31;103640;1274;138533;-64
2022/03/20 02:09:44;;;;;;;1.30;1.30;;;;;;;2.93;38.17;103311.14;103767;1274;94512;-65
2022/03/20 02:12:12;;;;;;;1.30;1.30;;;;;;;2.90;38.23;103309.07;103703;1274;137740;-65
2022/03/20 02:14:40;;;;;;;1.40;1.40;;;;;;;2.88;38.43;103311.23;103813;1274;108722;-65
2022/03/20 02:17:10;;;;;;;1.60;1.60;;;;;;;2.84;38.91;103309.48;103914;1274;99426;-65
2022/03/20 02:19:39;;;;;;;1.40;1.40;;;;;;;2.79;38.60;103312.73;103689;1274;139005;-64
2022/03/20 02:22:07;;;;;;;1.30;1.30;;;;;;;2.76;39.14;103310.45;103706;1274;94360;-64
2022/03/20 02:24:41;;;;;;;1.40;1.40;;;;;;;2.75;38.72;103310.21;103569;1274;137630;-65
2022/03/20 02:27:22;;;;;;;1.40;1.40;;;;;;;2.70;38.78;103310.83;103912;1274;108309;-63
2022/03/20 02:29:57;;;;;;;1.50;1.50;;;;;;;2.62;38.81;103307.80;103752;1274;137998;-64
2022/03/20 02:32:30;;;;;;;1.50;1.50;;;;;;;2.59;39.04;103305.33;103860;1274;107869;-66
2022/03/20 02:35:04;;;;;;;1.50;1.50;;;;;;;2.56;39.08;103306.59;103810;1274;94469;-65
2022/03/20 02:37:34;;;;;;;1.60;1.60;;;;;;;2.44;39.33;103299.78;103837;1274;138100;-65
2022/03/20 02:40:03;;;;;;;1.50;1.50;;;;;;;2.38;39.59;103299.27;103822;1274;108263;-65
2022/03/20 02:42:31;;;;;;;1.60;1.60;;;;;;;2.40;40.09;103300.10;103669;1277;137905;-63
2022/03/20 02:45:05;;;;;;;1.60;1.60;;;;;;;2.40;39.63;103299.40;103913;1275;110316;-65
2022/03/20 02:47:35;;;;;;;1.70;1.70;;;;;;;2.40;39.64;103297.10;103849;1274;94730;-64
2022/03/20 02:50:08;;;;;;;1.50;1.50;;;;;;;2.31;40.16;103297.52;103802;1275;138048;-64
2022/03/20 02:52:48;;;;;;;1.50;1.50;;;;;;;2.18;38.86;103298.20;103866;1274;108274;-65
2022/03/20 02:55:19;;;;;;;1.50;1.50;;;;;;;2.08;38.69;103299.27;103767;1274;137683;-64
2022/03/20 02:57:47;;;;;;;1.50;1.50;;;;;;;2.07;39.29;103296.20;103878;1274;109167;-65
2022/03/20 03:00:21;;;;;;;1.50;1.50;;;;;;;2.10;38.90;103299.71;103722;1274;139195;-64
2022/03/20 03:02:50;;;;;;;1.60;1.60;;;;;;;2.11;38.87;103301.19;103938;1274;95256;-64
2022/03/20 03:05:20;;;;;;;1.60;1.60;;;;;;;2.20;39.38;103305.19;103826;1274;108888;-64
2022/03/20 03:10:57;;;;;;;1.50;1.50;;;;;;;2.30;39.26;103307.27;103797;1274;108908;-63
2022/03/20 03:13:40;;;;;;;1.60;1.60;;;;;;;2.31;39.18;103304.36;103776;1275;138152;-65
2022/03/20 03:16:13;;;;;;;1.80;1.80;;;;;;;2.31;38.77;103304.02;103670;1275;94545;-63
2022/03/20 03:18:46;;;;;;;1.60;1.60;;;;;;;2.31;39.20;103303.29;103779;1274;138156;-64
2022/03/20 03:21:16;;;;;;;1.60;1.60;;;;;;;2.30;39.33;103306.96;103815;1274;99277;-64
2022/03/20 03:23:44;;;;;;;1.50;1.50;;;;;;;2.29;38.83;103305.46;103687;1277;108823;-63
2022/03/20 03:26:12;;;;;;;1.50;1.50;;;;;;;2.27;38.68;103307.84;103661;1274;138001;-64
2022/03/20 03:28:40;;;;;;;1.60;1.60;;;;;;;2.24;39.19;103308.67;103753;1275;94795;-65
2022/03/20 03:31:11;;;;;;;1.60;1.60;;;;;;;2.16;39.43;103304.10;103589;1276;137421;-64
2022/03/20 03:36:27;;;;;;;1.60;1.60;;;;;;;2.07;39.96;103309.52;103595;1274;138166;-64
2022/03/20 03:38:55;;;;;;;1.60;1.60;;;;;;;2.06;39.34;103310.89;103608;1273;94344;-64
2022/03/20 03:41:24;;;;;;;1.70;1.70;;;;;;;2.07;39.90;103306.73;103702;1275;94375;-65
2022/03/20 03:43:52;;;;;;;1.80;1.80;;;;;;;2.01;40.04;103303.96;103857;1274;140537;-65
2022/03/20 03:46:21;;;;;;;1.50;1.50;;;;;;;2.02;40.16;103310.98;103819;1275;98842;-63
2022/03/20 03:48:49;;;;;;;1.80;1.80;;;;;;;1.97;40.20;103309.52;103626;1274;138002;-62
2022/03/20 03:51:16;;;;;;;1.60;1.60;;;;;;;1.91;40.02;103308.08;103781;1274;94741;-65
2022/03/20 03:53:44;;;;;;;1.60;1.60;;;;;;;1.90;40.21;103309.10;103688;1274;94456;-64
2022/03/20 03:56:12;;;;;;;1.70;1.70;;;;;;;1.94;39.85;103309.66;103645;1274;137547;-65
2022/03/20 03:58:40;;;;;;;1.70;1.70;;;;;;;1.96;40.24;103309.62;103825;1274;99653;-64
2022/03/20 04:01:09;;;;;;;1.70;1.70;;;;;;;1.92;40.04;103306.59;103564;1274;138329;-64
2022/03/20 04:03:37;;;;;;;1.70;1.70;;;;;;;1.89;40.50;103306.40;103695;1274;94807;-65
2022/03/20 04:06:05;;;;;;;1.60;1.60;;;;;;;1.82;40.18;103306.25;103720;1274;137599;-63
2022/03/20 04:08:35;;;;;;;1.70;1.70;;;;;;;1.81;40.64;103309.31;104244;1274;107332;-63
2022/03/20 04:11:03;;;;;;;1.80;1.80;;;;;;;1.81;40.63;103310.88;103773;1274;99362;-64
2022/03/20 04:13:31;;;;;;;1.80;1.80;;;;;;;1.77;41.13;103315.75;103674;1274;137459;-64
2022/03/20 04:15:58;;;;;;;1.70;1.70;;;;;;;1.69;40.88;103321.41;103815;1274;94865;-63
2022/03/20 04:18:26;;;;;;;1.70;1.70;;;;;;;1.62;40.63;103325.91;103556;1274;138215;-63
2022/03/20 04:20:54;;;;;;;1.80;1.80;;;;;;;1.59;41.28;103333.46;103715;1274;108063;-64
2022/03/20 04:26:08;;;;;;;1.80;1.80;;;;;;;1.59;40.91;103327.83;103648;1274;137345;-64
2022/03/20 04:28:36;;;;;;;1.70;1.70;;;;;;;1.61;40.74;103327.98;103781;1274;94315;-63
2022/03/20 04:31:05;;;;;;;1.70;1.70;;;;;;;1.62;40.81;103326.27;103870;1274;137438;-63
2022/03/20 04:33:33;;;;;;;1.70;1.70;;;;;;;1.64;40.93;103324.63;103795;1274;108345;-64
2022/03/20 04:36:01;;;;;;;2.20;2.10;;;;;;;1.56;40.84;103328.87;103628;1274;137803;-63
2022/03/20 04:38:30;;;;;;;2.00;2.00;;;;;;;1.50;39.75;103324.33;103913;1274;108890;-64
2022/03/20 04:40:57;;;;;;;1.60;1.60;;;;;;;1.50;40.41;103328.55;103789;1274;94871;-64
2022/03/20 04:43:27;;;;;;;1.70;1.70;;;;;;;1.55;40.34;103327.27;103715;1274;138431;-62
2022/03/20 04:45:55;;;;;;;1.70;1.70;;;;;;;1.55;40.29;103325.33;103782;1275;108368;-64
2022/03/20 04:59:29;;;;;;;1.60;1.60;;;;;;;1.65;39.75;103327.87;103817;1274;108467;-62
2022/03/20 05:01:59;;;;;;;1.60;1.60;;;;;;;1.69;40.11;103325.09;103658;1274;137753;-64
2022/03/20 05:04:27;;;;;;;1.70;1.70;;;;;;;1.74;40.33;103333.59;103768;1274;108551;-63
2022/03/20 05:06:55;;;;;;;1.80;1.80;;;;;;;1.73;40.09;103338.59;103784;1274;137609;-65
2022/03/20 05:14:58;;;;;;;1.70;1.70;;;;;;;1.68;40.58;103351.67;103801;1274;99669;-64
2022/03/20 05:17:25;;;;;;;1.60;1.60;;;;;;;1.69;40.72;103352.05;103797;1275;108844;-64
2022/03/20 05:19:53;;;;;;;1.60;1.60;;;;;;;1.75;40.44;103357.48;103745;1274;138087;-65
2022/03/20 05:22:21;;;;;;;1.60;1.60;;;;;;;1.76;40.34;103356.52;103754;1274;94615;-64
2022/03/20 05:24:49;;;;;;;1.60;1.60;;;;;;;1.75;40.80;103357.67;103664;1274;137991;-64
2022/03/20 05:27:16;;;;;;;1.60;1.60;;;;;;;1.75;40.11;103359.58;103797;1274;99481;-65
2022/03/20 05:29:45;;;;;;;1.70;1.70;;;;;;;1.77;40.36;103362.86;103825;1274;108869;-62
2022/03/20 05:32:13;;;;;;;1.60;1.60;;;;;;;1.80;40.35;103363.04;103671;1274;137909;-63
2022/03/20 05:34:41;;;;;;;1.70;1.70;;;;;;;1.76;39.43;103367.33;103835;1274;94738;-64
2022/03/20 05:37:09;;;;;;;1.60;1.60;;;;;;;1.77;39.78;103370.08;103716;1274;137843;-63
2022/03/20 05:39:38;;;;;;;1.60;1.60;;;;;;;1.84;39.90;103369.91;103780;1274;99634;-60
2022/03/20 05:42:06;;;;;;;1.60;1.60;;;;;;;1.84;38.99;103374.10;103745;1274;137600;-64
2022/03/20 05:44:34;;;;;;;1.60;1.60;;;;;;;1.78;38.20;103376.41;103815;1274;94236;-63
2022/03/20 05:47:02;;;;;;;1.60;1.60;;;;;;;1.79;38.67;103381.04;103812;1274;94270;-64
2022/03/20 05:49:30;;;;;;;1.60;1.60;;;;;;;1.82;38.22;103385.55;103649;1274;137475;-64
2022/03/20 05:51:58;;;;;;;1.60;1.60;;;;;;;1.82;37.48;103381.21;103837;1274;99393;-66
2022/03/20 05:54:26;;;;;;;1.60;1.60;;;;;;;1.82;37.71;103386.82;103772;1274;138181;-63
2022/03/20 05:59:40;;;;;;;1.40;1.40;;;;;;;1.95;37.83;103387.91;103847;1274;94315;-63
2022/03/20 06:02:11;;;;;;;1.50;1.50;;;;;;;2.00;37.61;103390.48;103685;1274;137775;-65
2022/03/20 06:04:39;;;;;;;1.50;1.50;;;;;;;2.07;37.17;103389.64;103828;1274;99406;-63
2022/03/20 06:07:08;;;;;;;1.40;1.40;;;;;;;2.18;37.31;103391.29;103731;1274;138029;-65
2022/03/20 06:09:37;;;;;;;1.40;1.40;;;;;;;2.28;37.04;103394.64;104023;1274;94278;-67
2022/03/20 06:12:08;;;;;;;1.60;1.60;;;;;;;2.34;36.67;103396.21;103675;1274;138442;-65
2022/03/20 06:14:36;;;;;;;1.60;1.60;;;;;;;2.46;37.46;103400.72;103770;1274;106693;-65
2022/03/20 06:17:09;;;;;;;1.40;1.40;;;;;;;2.59;37.25;103400.95;103750;1274;100048;-65
2022/03/20 06:19:38;;;;;;;1.40;1.40;;;;;;;2.67;36.86;103404.02;103714;1274;139766;-66
2022/03/20 06:22:06;;;;;;;1.40;1.40;;;;;;;2.74;37.16;103402.27;103768;1275;94595;-64
2022/03/20 06:24:34;;;;;;;1.40;1.40;;;;;;;2.84;37.19;103402.29;103645;1274;137772;-65
2022/03/20 06:27:03;;;;;;;1.40;1.40;;;;;;;2.91;35.91;103404.76;103900;1274;108847;-64
2022/03/20 06:29:31;;;;;;;1.40;1.40;;;;;;;2.94;35.33;103403.89;103821;1274;99012;-66
2022/03/20 06:31:58;;;;;;;1.40;1.40;;;;;;;2.97;35.36;103404.76;103762;1274;137604;-63
2022/03/20 06:34:26;;;;;;;1.30;1.30;;;;;;;3.01;35.71;103406.31;103970;1274;94312;-64
2022/03/20 06:36:57;;;;;;;1.30;1.30;;;;;;;3.06;35.40;103407.48;103816;1274;137523;-63
2022/03/20 06:39:25;;;;;;;1.40;1.40;;;;;;;3.09;35.07;103410.98;103887;1274;108517;-64
2022/03/20 06:41:53;;;;;;;1.40;1.40;;;;;;;3.18;35.85;103415.00;103783;1274;138861;-63
2022/03/20 06:44:21;;;;;;;1.30;1.30;;;;;;;3.29;35.53;103419.57;103848;1274;107713;-61
2022/03/20 06:46:49;;;;;;;1.50;1.50;;;;;;;3.34;34.83;103417.03;103899;1274;94325;-65
2022/03/20 06:49:18;;;;;;;1.30;1.30;;;;;;;3.42;35.09;103414.42;103766;1274;137770;-62
2022/03/20 06:51:46;;;;;;;1.30;1.30;;;;;;;3.54;35.15;103416.29;103945;1274;108694;-65
2022/03/20 06:54:14;;;;;;;1.20;1.20;;;;;;;3.63;34.84;103416.56;103894;1274;138396;-64
2022/03/20 06:56:42;;;;;;;1.40;1.40;;;;;;;3.70;34.38;103415.34;103882;1275;108737;-64
2022/03/20 06:59:14;;;;;;;1.10;1.10;;;;;;;3.82;34.96;103421.58;103985;1274;94305;-64
2022/03/20 07:01:41;;;;;;;1.20;1.20;;;;;;;4.00;35.08;103425.31;103860;1274;137776;-65
2022/03/20 07:04:10;;;;;;;1.20;1.20;;;;;;;4.13;34.73;103421.17;103839;1274;107988;-64
2022/03/20 07:06:38;;;;;;;1.20;1.20;;;;;;;4.22;34.48;103416.01;103755;1274;138285;-65
2022/03/20 07:09:06;;;;;;;1.10;1.10;;;;;;;4.32;33.92;103412.44;103817;1274;108883;-64
2022/03/20 07:11:34;;;;;;;1.00;1.00;;;;;;;4.40;33.72;103415.10;103824;1274;94558;-63
2022/03/20 07:14:03;;;;;;;1.20;1.20;;;;;;;4.50;34.06;103418.42;103746;1274;137860;-66
2022/03/20 07:16:33;;;;;;;1.10;1.10;;;;;;;4.68;34.55;103419.55;103841;1274;108144;-65
2022/03/20 07:19:02;;;;;;;1.20;1.20;;;;;;;4.84;34.21;103416.98;103994;1274;137415;-62
2022/03/20 07:21:32;;;;;;;1.10;1.10;;;;;;;4.96;33.87;103417.34;103882;1274;108669;-65
2022/03/20 07:24:02;;;;;;;1.10;1.10;;;;;;;5.05;32.17;103415.64;103842;1274;138015;-66
2022/03/20 07:29:32;;;;;;;1.00;1.00;;;;;;;5.28;32.11;103420.54;103844;1274;107708;-64
2022/03/20 07:32:04;;;;;;;1.00;1.00;;;;;;;5.42;32.08;103414.27;103669;1274;137765;-66
2022/03/20 07:34:34;;;;;;;0.90;0.90;;;;;;;5.49;30.31;103409.98;103858;1274;108783;-64
2022/03/20 07:37:03;;;;;;;1.00;1.00;;;;;;;5.54;30.17;103408.66;104012;1274;138049;-67
2022/03/20 07:39:33;;;;;;;1.00;1.00;;;;;;;5.63;29.78;103411.67;103825;1274;94642;-67
2022/03/20 07:42:01;;;;;;;0.90;0.90;;;;;;;5.73;29.52;103409.80;103697;1274;138163;-63
2022/03/20 07:44:32;;;;;;;0.90;0.90;;;;;;;5.88;29.85;103411.32;103777;1274;99552;-63
2022/03/20 07:47:00;;;;;;;0.90;0.90;;;;;;;5.99;29.21;103409.83;103761;1274;108962;-65
2022/03/20 07:49:28;;;;;;;0.80;0.80;;;;;;;6.06;30.07;103399.73;103634;1274;138062;-64
2022/03/20 07:51:57;;;;;;;0.90;0.90;;;;;;;6.21;30.57;103399.27;103803;1274;94740;-65
2022/03/20 07:54:26;;;;;;;0.90;0.90;;;;;;;6.40;30.20;103397.56;103765;1274;138342;-63
2022/03/20 07:56:54;;;;;;;0.80;0.80;;;;;;;6.57;29.26;103393.08;103912;1274;98378;-65
2022/03/20 07:59:21;;;;;;;0.80;0.80;;;;;;;6.67;28.19;103394.54;103875;1274;108798;-69
2022/03/20 08:01:50;;;;;;;0.90;0.90;;;;;;;6.75;28.10;103396.59;103693;1274;138121;-64
2022/03/20 08:04:19;;;;;;;0.80;0.80;;;;;;;6.87;28.48;103389.61;103982;1275;94497;-66
2022/03/20 08:06:47;;;;;;;0.70;0.70;;;;;;;6.99;28.38;103390.27;103837;1274;137916;-65
2022/03/20 08:09:15;;;;;;;0.90;0.90;;;;;;;7.15;28.15;103396.85;103909;1274;99491;-63
2022/03/20 08:11:43;;;;;;;0.60;0.60;;;;;;;7.28;27.83;103399.96;103812;1274;109470;-64
2022/03/20 08:14:11;;;;;;;0.80;0.80;;;;;;;7.40;27.87;103398.78;103709;1274;137514;-63
2022/03/20 08:16:39;;;;;;;0.70;0.70;;;;;;;7.57;28.28;103398.13;103820;1274;94325;-64
2022/03/20 08:19:09;;;;;;;0.70;0.70;;;;;;;7.70;27.36;103399.98;103797;1274;137456;-65
2022/03/20 08:21:39;;;;;;;0.60;0.60;;;;;;;7.81;26.68;103402.48;104160;1274;100166;-64
2022/03/20 08:24:08;;;;;;;0.60;0.60;;;;;;;7.98;27.59;103395.25;103585;1274;137918;-64
2022/03/20 08:26:36;;;;;;;0.60;0.60;;;;;;;8.20;27.25;103396.13;104046;1274;94714;-64
2022/03/20 08:29:03;;;;;;;0.60;0.60;;;;;;;8.36;26.70;103397.34;103959;1274;94644;-64
2022/03/20 08:31:34;;;;;;;0.60;0.60;;;;;;;8.41;25.73;103395.73;103989;1274;137336;-66
2022/03/20 08:34:02;;;;;;;0.60;0.60;;;;;;;8.56;26.84;103398.33;104365;1274;99388;-65
2022/03/20 08:36:31;;;;;;;0.60;0.60;;;;;;;8.66;25.26;103399.18;104113;1274;137960;-66
2022/03/20 08:38:58;;;;;;;0.50;0.50;;;;;;;8.65;25.40;103395.78;104505;1274;96014;-66
2022/03/20 08:41:26;;;;;;;0.50;0.50;;;;;;;8.68;24.99;103396.75;104158;1274;94226;-65
2022/03/20 08:43:54;;;;;;;0.50;0.50;;;;;;;8.78;25.62;103393.50;104007;1274;137901;-66
2022/03/20 08:46:23;;;;;;;0.50;0.50;;;;;;;8.99;25.90;103398.55;104144;1274;99988;-65
2022/03/20 08:48:51;;;;;;;0.60;0.60;;;;;;;9.14;25.22;103399.14;104116;1274;136330;-65
2022/03/20 08:51:19;;;;;;;0.50;0.50;;;;;;;9.23;25.13;103400.10;104103;1274;94500;-64
2022/03/20 08:53:48;;;;;;;0.60;0.60;;;;;;;9.32;25.27;103397.86;104173;1274;94836;-64
2022/03/20 08:56:17;;;;;;;0.50;0.50;;;;;;;9.41;24.87;103393.85;104054;1274;137285;-64
2022/03/20 08:58:46;;;;;;;0.50;0.50;;;;;;;9.46;24.15;103391.33;104171;1274;98361;-65
2022/03/20 09:01:21;;;;;;;0.50;0.50;;;;;;;9.53;24.34;103387.80;104040;1274;137928;-65
2022/03/20 09:03:52;;;;;;;0.60;0.60;;;;;;;9.86;25.28;103386.11;104214;1274;94317;-65
2022/03/20 09:06:21;;;;;;;0.50;0.50;;;;;;;10.99;23.52;103387.94;103824;1274;137562;-64
2022/03/20 09:08:50;;;;;;;0.50;0.50;;;;;;;12.44;20.26;103380.98;103869;1274;107386;-65
2022/03/20 09:11:18;;;;;;;0.40;0.40;;;;;;;14.10;18.83;103376.68;104364;1274;98900;-66
2022/03/20 09:13:46;;;;;;;0.40;0.30;;;;;;;15.88;18.17;103369.19;103617;1274;138303;-66
2022/03/20 09:19:07;;;;;;;0.40;0.20;;;;;;;18.97;14.98;103359.09;103740;1274;138200;-64
2022/03/20 09:21:37;;;;;;;0.40;0.20;;;;;;;19.97;13.80;103354.45;104039;1274;108101;-67
2022/03/20 09:24:06;;;;;;;0.40;0.20;;;;;;;20.90;13.40;103360.16;103639;1274;137124;-67
2022/03/20 09:26:35;;;;;;;0.40;0.10;;;;;;;21.33;12.01;103367.33;104452;1274;108904;-65
2022/03/20 09:29:04;;;;;;;0.40;0.10;;;;;;;21.24;12.04;103360.49;104067;1274;94372;-65
2022/03/20 09:31:34;;;;;;;0.40;0.10;;;;;;;22.19;12.54;103355.52;103655;1274;137862;-65
2022/03/20 09:34:09;;;;;;;0.40;0.10;;;;;;;23.00;11.63;103356.03;103788;1274;109636;-66
2022/03/20 09:36:37;;;;;;;0.40;0.10;;;;;;;23.73;10.71;103355.67;103772;1274;138388;-65
2022/03/20 09:39:06;;;;;;;0.40;0.00;;;;;;;23.26;10.13;103359.61;103946;1274;108799;-65
2022/03/20 09:41:36;;;;;;;0.40;0.00;;;;;;;22.06;10.61;103362.21;103685;1274;96758;-64
2022/03/20 09:44:05;;;;;;;0.40;0.10;;;;;;;20.96;11.70;103364.38;103809;1274;137866;-65
2022/03/20 09:46:34;;;;;;;0.40;0.10;;;;;;;20.79;12.07;103363.33;103989;1274;108307;-65
2022/03/20 09:49:06;;;;;;;0.40;0.10;;;;;;;21.16;12.57;103357.05;103812;1274;138014;-65
2022/03/20 09:51:34;;;;;;;0.40;0.10;;;;;;;22.06;12.57;103347.55;104016;1274;108843;-65
2022/03/20 09:54:02;;;;;;;0.40;0.10;;;;;;;22.67;10.96;103348.02;103710;1274;138292;-66
2022/03/20 09:56:30;;;;;;;0.40;0.10;;;;;;;22.94;11.14;103349.36;103848;1274;94854;-65
2022/03/20 09:58:58;;;;;;;0.40;0.10;;;;;;;23.70;10.83;103339.06;103690;1274;107356;-65
2022/03/20 10:01:26;;;;;;;0.40;0.10;;;;;;;24.66;10.44;103341.38;103766;1274;138165;-66
2022/03/20 10:04:12;;;;;;;0.40;0.10;;;;;;;25.56;10.48;103336.11;103863;1274;108901;-65
2022/03/20 10:06:42;;;;;;;0.40;0.10;;;;;;;26.07;9.46;103332.80;103815;1274;138355;-65
2022/03/20 10:09:13;;;;;;;0.40;0.00;;;;;;;25.89;9.10;103337.77;103753;1274;94427;-64
2022/03/20 10:11:55;;;;;;;0.40;0.10;;;;;;;26.37;9.49;103335.80;103899;1272;108438;-65
2022/03/20 10:14:29;;;;;;;0.40;0.10;;;;;;;27.05;9.25;103338.27;103752;1274;137630;-65
2022/03/20 10:17:16;;;;;;;0.40;0.10;;;;;;;26.59;8.17;103335.33;103964;1274;107811;-64
2022/03/20 10:19:44;;;;;;;0.40;0.00;;;;;;;26.21;8.70;103329.44;103766;1274;137754;-63
2022/03/20 10:22:14;;;;;;;0.40;0.10;;;;;;;26.17;9.18;103329.59;103723;1274;94836;-66
2022/03/20 10:24:50;;;;;;;0.40;0.00;;;;;;;27.06;9.01;103323.97;103660;1274;138246;-67
2022/03/20 10:27:18;;;;;;;0.40;0.00;;;;;;;27.81;8.74;103319.80;104096;1272;100044;-63
2022/03/20 10:29:58;;;;;;;0.40;0.00;;;;;;;28.07;8.26;103320.97;103749;1274;108834;-65
2022/03/20 10:32:26;;;;;;;0.40;0.00;;;;;;;27.92;7.79;103318.86;104182;1274;139793;-65
2022/03/20 10:34:57;;;;;;;0.40;0.00;;;;;;;27.87;8.17;103316.95;103794;1274;95558;-66
2022/03/20 10:37:46;;;;;;;0.40;0.00;;;;;;;28.69;8.64;103308.40;103892;1274;137662;-65
2022/03/20 10:40:17;;;;;;;0.40;0.00;;;;;;;29.03;7.60;103312.30;103769;1274;98432;-64
2022/03/20 10:43:14;;;;;;;0.40;0.00;;;;;;;29.06;7.80;103311.98;103485;1275;138304;-64
2022/03/20 10:46:00;;;;;;;0.40;0.00;;;;;;;28.69;7.28;103311.33;103627;1274;94395;-65
2022/03/20 10:48:38;;;;;;;0.40;0.00;;;;;;;28.25;8.06;103305.17;103452;1274;138474;-67
2022/03/20 10:51:07;;;;;;;0.40;0.00;;;;;;;29.20;8.10;103299.45;104292;1274;108206;-66
2022/03/20 10:53:36;;;;;;;0.40;0.00;;;;;;;28.22;8.03;103307.48;103815;1274;99298;-65
2022/03/20 10:56:06;;;;;;;0.40;0.00;;;;;;;25.63;9.03;103312.28;103485;1274;137400;-65
2022/03/20 10:58:40;;;;;;;0.40;0.00;;;;;;;23.30;10.18;103313.20;103687;1274;94784;-64
2022/03/20 11:01:08;;;;;;;0.40;0.00;;;;;;;21.83;11.28;103313.63;103584;1274;138129;-66
2022/03/20 11:03:39;;;;;;;0.40;0.10;;;;;;;20.67;11.71;103313.54;104196;1274;108349;-64
2022/03/20 11:06:08;;;;;;;0.40;0.10;;;;;;;19.63;12.65;103311.07;103597;1274;138217;-66
2022/03/20 11:08:39;;;;;;;0.40;0.10;;;;;;;18.74;13.52;103313.70;104016;1274;109079;-65
2022/03/20 11:11:10;;;;;;;0.40;0.10;;;;;;;18.12;13.81;103313.39;103608;1274;94712;-65
2022/03/20 11:13:46;;;;;;;0.40;0.10;;;;;;;17.48;14.34;103311.48;103756;1274;137757;-65
2022/03/20 11:16:15;;;;;;;0.40;0.10;;;;;;;16.87;14.57;103318.19;104124;1274;108438;-65
2022/03/20 11:18:45;;;;;;;0.40;0.20;;;;;;;15.91;15.01;103313.67;103567;1274;138026;-63
2022/03/20 11:21:13;;;;;;;0.40;0.20;;;;;;;15.31;15.58;103303.85;103669;1274;108890;-66
2022/03/20 11:23:44;;;;;;;0.40;0.20;;;;;;;14.99;15.74;103300.06;104027;1274;94404;-64
2022/03/20 11:26:12;;;;;;;0.40;0.20;;;;;;;14.47;16.00;103292.55;103572;1274;137808;-66
2022/03/20 11:28:48;;;;;;;0.40;0.20;;;;;;;14.10;16.65;103289.70;103706;1277;108212;-64
2022/03/20 11:31:17;;;;;;;0.40;0.20;;;;;;;13.86;16.94;103287.77;104219;1276;138069;-65
2022/03/20 11:33:45;;;;;;;0.40;0.20;;;;;;;13.56;17.13;103283.81;103778;1274;108899;-64
2022/03/20 11:36:17;;;;;;;0.40;0.20;;;;;;;13.47;17.93;103279.10;103573;1274;138759;-64
2022/03/20 11:39:11;;;;;;;0.40;0.30;;;;;;;13.61;17.87;103275.98;103780;1274;96575;-65
2022/03/20 11:41:40;;;;;;;0.40;0.30;;;;;;;13.48;17.70;103267.86;103788;1274;108654;-65
2022/03/20 11:44:20;;;;;;;0.40;0.30;;;;;;;13.45;17.76;103258.73;103544;1276;139360;-64
2022/03/20 11:47:19;;;;;;;0.40;0.30;;;;;;;13.37;17.99;103255.98;105055;1274;108319;-66
2022/03/20 11:50:06;;;;;;;0.40;0.30;;;;;;;13.34;18.45;103251.48;103675;1274;137964;-65
2022/03/20 11:52:55;;;;;;;0.40;0.30;;;;;;;13.39;19.12;103255.11;103766;1274;95500;-65
2022/03/20 11:55:46;;;;;;;0.40;0.30;;;;;;;13.39;18.43;103249.23;104649;1273;137978;-65
2022/03/20 11:58:17;;;;;;;0.40;0.30;;;;;;;13.27;18.37;103239.83;103850;1274;99494;-65
2022/03/20 12:00:45;;;;;;;0.40;0.30;;;;;;;13.14;18.57;103243.46;103714;1274;137939;-65
2022/03/20 12:03:13;;;;;;;0.40;0.30;;;;;;;13.05;18.27;103240.53;103719;1274;94579;-64
2022/03/20 12:05:42;;;;;;;0.40;0.30;;;;;;;13.01;18.79;103230.69;103851;1274;94277;-64